Terminal Aerodrome Forecast
Issued by NWS

Home | Current Version | Previous Version | Text Only | Print | Product List | Glossary On
Versions: 1 2 3 4 5 6 7 8 9 10 11 12 13 14 15 16 17 18 19 20 21 22 23
000
FTUS43 KDLH 282016 AAB
TAFBRD
TAF AMD
KBRD 282016Z 2820/2918 02008KT P6SM OVC030
      TEMPO 2820/2822 SCT030
     FM290000 03003KT P6SM BKN025
     FM290900 00000KT 3SM BR FEW001 SCT025
     FM291300 06002KT P6SM SCT025=

USA.gov is the U.S. government's official web portal to all federal, state and local government web resources and services.